sensor_id;sensor_type;location;lat;lon;timestamp;pressure;altitude;pressure_sealevel;temperature;humidity
9325;BME280;4701;51.566;6.776;2023-03-04T07:02:45;102159.53;;;4.21;86.95
9325;BME280;4701;51.566;6.776;2023-03-04T07:04:47;102162.97;;;4.29;86.99
9325;BME280;4701;51.566;6.776;2023-03-04T07:06:49;102152.50;;;4.41;86.34
9325;BME280;4701;51.566;6.776;2023-03-04T07:08:51;102148.38;;;4.45;86.05
9325;BME280;4701;51.566;6.776;2023-03-04T07:10:53;102154.91;;;4.50;86.13
9325;BME280;4701;51.566;6.776;2023-03-04T07:12:55;102154.91;;;4.50;86.51
9325;BME280;4701;51.566;6.776;2023-03-04T07:14:57;102151.53;;;4.48;87.74
9325;BME280;4701;51.566;6.776;2023-03-04T07:16:58;102155.69;;;4.51;88.39
9325;BME280;4701;51.566;6.776;2023-03-04T07:19:02;102163.19;;;4.49;89.04
9325;BME280;4701;51.566;6.776;2023-03-04T07:21:05;102164.22;;;4.48;88.51
9325;BME280;4701;51.566;6.776;2023-03-04T07:23:08;102166.59;;;4.57;89.10
9325;BME280;4701;51.566;6.776;2023-03-04T07:25:09;102157.25;;;4.60;88.67
9325;BME280;4701;51.566;6.776;2023-03-04T07:27:11;102161.63;;;4.61;88.11
9325;BME280;4701;51.566;6.776;2023-03-04T07:29:13;102161.72;;;4.68;88.46
9325;BME280;4701;51.566;6.776;2023-03-04T07:31:20;102161.97;;;4.73;87.67
9325;BME280;4701;51.566;6.776;2023-03-04T07:33:22;102157.41;;;4.73;87.83
9325;BME280;4701;51.566;6.776;2023-03-04T07:35:25;102164.28;;;4.76;88.41
9325;BME280;4701;51.566;6.776;2023-03-04T07:37:27;102159.78;;;4.83;87.92
9325;BME280;4701;51.566;6.776;2023-03-04T07:39:29;102163.38;;;4.90;87.85
9325;BME280;4701;51.566;6.776;2023-03-04T07:41:31;102164.06;;;4.99;87.93
9325;BME280;4701;51.566;6.776;2023-03-04T07:43:35;102166.84;;;5.12;88.21
9325;BME280;4701;51.566;6.776;2023-03-04T07:45:37;102162.56;;;5.17;86.76
9325;BME280;4701;51.566;6.776;2023-03-04T07:47:39;102163.13;;;5.13;86.91
9325;BME280;4701;51.566;6.776;2023-03-04T07:49:41;102159.84;;;5.17;87.56
9325;BME280;4701;51.566;6.776;2023-03-04T07:51:44;102161.72;;;5.17;86.36
9325;BME280;4701;51.566;6.776;2023-03-04T07:53:48;102162.13;;;5.20;88.02
9325;BME280;4701;51.566;6.776;2023-03-04T07:55:51;102168.84;;;5.24;87.66
9325;BME280;4701;51.566;6.776;2023-03-04T07:57:52;102163.25;;;5.26;86.81
9325;BME280;4701;51.566;6.776;2023-03-04T07:59:54;102170.72;;;5.24;87.74
9325;BME280;4701;51.566;6.776;2023-03-04T08:01:56;102170.72;;;5.24;88.42
9325;BME280;4701;51.566;6.776;2023-03-04T08:03:58;102167.13;;;5.17;88.98
9325;BME280;4701;51.566;6.776;2023-03-04T08:06:03;102168.38;;;5.21;89.27
9325;BME280;4701;51.566;6.776;2023-03-04T08:08:07;102168.50;;;5.34;89.33
9325;BME280;4701;51.566;6.776;2023-03-04T08:10:10;102165.78;;;5.34;87.79
9325;BME280;4701;51.566;6.776;2023-03-04T08:12:12;102173.50;;;5.37;88.25
9325;BME280;4701;51.566;6.776;2023-03-04T08:14:13;102175.41;;;5.43;87.25
9325;BME280;4701;51.566;6.776;2023-03-04T08:16:17;102173.09;;;5.40;87.13
9325;BME280;4701;51.566;6.776;2023-03-04T08:18:19;102177.09;;;5.44;87.73
9325;BME280;4701;51.566;6.776;2023-03-04T08:20:21;102175.06;;;5.53;87.85
9325;BME280;4701;51.566;6.776;2023-03-04T08:22:23;102190.13;;;5.34;89.26
9325;BME280;4701;51.566;6.776;2023-03-04T08:24:26;102187.72;;;5.18;92.68
9325;BME280;4701;51.566;6.776;2023-03-04T08:26:29;102181.84;;;5.14;94.61
9325;BME280;4701;51.566;6.776;2023-03-04T08:28:33;102178.22;;;5.01;95.88
9325;BME280;4701;51.566;6.776;2023-03-04T08:30:35;102178.13;;;4.94;96.66
9325;BME280;4701;51.566;6.776;2023-03-04T08:32:37;102181.69;;;4.94;98.01
9325;BME280;4701;51.566;6.776;2023-03-04T08:34:39;102178.59;;;4.98;97.67
9325;BME280;4701;51.566;6.776;2023-03-04T08:36:41;102181.53;;;5.03;97.46
9325;BME280;4701;51.566;6.776;2023-03-04T08:38:43;102174.88;;;4.99;97.35
9325;BME280;4701;51.566;6.776;2023-03-04T08:40:51;102172.22;;;5.05;97.32
9325;BME280;4701;51.566;6.776;2023-03-04T08:42:53;102174.50;;;5.02;96.85
9325;BME280;4701;51.566;6.776;2023-03-04T08:44:54;102174.34;;;5.10;96.98
9325;BME280;4701;51.566;6.776;2023-03-04T08:46:56;102161.09;;;5.21;95.75
9325;BME280;4701;51.566;6.776;2023-03-04T08:48:58;102178.81;;;5.24;95.99
9325;BME280;4701;51.566;6.776;2023-03-04T08:51:00;102173.28;;;5.39;95.81
9325;BME280;4701;51.566;6.776;2023-03-04T08:53:02;102171.31;;;5.54;95.67
9325;BME280;4701;51.566;6.776;2023-03-04T08:55:04;102171.56;;;5.59;94.63
9325;BME280;4701;51.566;6.776;2023-03-04T08:57:07;102172.97;;;5.55;94.05
9325;BME280;4701;51.566;6.776;2023-03-04T08:59:09;102168.44;;;5.62;93.10
9325;BME280;4701;51.566;6.776;2023-03-04T09:01:12;102168.44;;;5.62;91.23
9325;BME280;4701;51.566;6.776;2023-03-04T09:03:15;102168.50;;;5.68;91.94
9325;BME280;4701;51.566;6.776;2023-03-04T09:05:18;102174.75;;;5.69;92.21
9325;BME280;4701;51.566;6.776;2023-03-04T09:07:20;102172.50;;;5.79;92.25
9325;BME280;4701;51.566;6.776;2023-03-04T09:09:22;102168.22;;;5.91;91.17
9325;BME280;4701;51.566;6.776;2023-03-04T09:11:23;102169.50;;;5.95;91.24
9325;BME280;4701;51.566;6.776;2023-03-04T09:13:28;102172.03;;;6.03;90.87
9325;BME280;4701;51.566;6.776;2023-03-04T09:15:30;102163.78;;;5.84;89.83
9325;BME280;4701;51.566;6.776;2023-03-04T09:17:34;102178.91;;;5.71;90.72
9325;BME280;4701;51.566;6.776;2023-03-04T09:19:36;102175.72;;;5.61;91.68
9325;BME280;4701;51.566;6.776;2023-03-04T09:21:38;102167.94;;;5.45;92.03
9325;BME280;4701;51.566;6.776;2023-03-04T09:23:40;102174.81;;;5.48;93.44
9325;BME280;4701;51.566;6.776;2023-03-04T09:25:42;102166.53;;;5.56;94.17
9325;BME280;4701;51.566;6.776;2023-03-04T09:27:45;102172.81;;;5.63;93.79
9325;BME280;4701;51.566;6.776;2023-03-04T09:29:48;102164.63;;;5.84;94.19
9325;BME280;4701;51.566;6.776;2023-03-04T09:31:50;102159.66;;;5.88;93.47
9325;BME280;4701;51.566;6.776;2023-03-04T09:33:53;102162.63;;;5.99;92.56
9325;BME280;4701;51.566;6.776;2023-03-04T09:35:55;102164.53;;;6.05;90.84
9325;BME280;4701;51.566;6.776;2023-03-04T09:37:58;102172.69;;;6.12;89.49
9325;BME280;4701;51.566;6.776;2023-03-04T09:40:00;102163.94;;;6.10;89.27
9325;BME280;4701;51.566;6.776;2023-03-04T09:42:05;102173.31;;;6.14;88.75
9325;BME280;4701;51.566;6.776;2023-03-04T09:44:15;102163.50;;;6.13;88.44
9325;BME280;4701;51.566;6.776;2023-03-04T09:46:28;102161.66;;;6.14;88.92
9325;BME280;4701;51.566;6.776;2023-03-04T09:48:38;102161.88;;;6.19;88.28
9325;BME280;4701;51.566;6.776;2023-03-04T09:50:45;102153.16;;;6.30;88.91
9325;BME280;4701;51.566;6.776;2023-03-04T09:53:05;102153.59;;;6.27;88.98
9325;BME280;4701;51.566;6.776;2023-03-04T09:55:17;102149.63;;;6.29;88.10
9325;BME280;4701;51.566;6.776;2023-03-04T09:57:26;102144.63;;;6.26;88.44
9325;BME280;4701;51.566;6.776;2023-03-04T09:59:34;102152.09;;;6.18;88.14
9325;BME280;4701;51.566;6.776;2023-03-04T10:01:47;102145.00;;;6.17;88.82
9325;BME280;4701;51.566;6.776;2023-03-04T10:03:53;102150.78;;;6.07;89.71
9325;BME280;4701;51.566;6.776;2023-03-04T10:05:59;102146.59;;;5.98;91.38
9325;BME280;4701;51.566;6.776;2023-03-04T10:08:14;102147.22;;;5.93;91.28
9325;BME280;4701;51.566;6.776;2023-03-04T10:10:21;102142.66;;;6.00;90.52
9325;BME280;4701;51.566;6.776;2023-03-04T10:12:26;102146.84;;;6.03;91.49
9325;BME280;4701;51.566;6.776;2023-03-04T10:14:37;102141.84;;;6.13;92.17
9325;BME280;4701;51.566;6.776;2023-03-04T10:16:45;102146.06;;;6.22;92.79
9325;BME280;4701;51.566;6.776;2023-03-04T10:18:53;102138.97;;;6.21;91.67
9325;BME280;4701;51.566;6.776;2023-03-04T10:20:59;102135.03;;;6.30;91.61
9325;BME280;4701;51.566;6.776;2023-03-04T10:23:08;102140.50;;;6.37;90.09
9325;BME280;4701;51.566;6.776;2023-03-04T10:25:17;102136.13;;;6.42;90.08
9325;BME280;4701;51.566;6.776;2023-03-04T10:27:19;102129.03;;;6.48;90.05
9325;BME280;4701;51.566;6.776;2023-03-04T10:29:23;102136.13;;;6.49;89.43
9325;BME280;4701;51.566;6.776;2023-03-04T10:31:30;102138.22;;;6.67;89.11
9325;BME280;4701;51.566;6.776;2023-03-04T10:33:36;102128.44;;;6.59;88.51
9325;BME280;4701;51.566;6.776;2023-03-04T10:35:41;102131.34;;;6.64;88.23
9325;BME280;4701;51.566;6.776;2023-03-04T10:37:48;102131.97;;;6.66;87.95
9325;BME280;4701;51.566;6.776;2023-03-04T10:39:51;102128.44;;;6.72;87.46
9325;BME280;4701;51.566;6.776;2023-03-04T10:41:56;102128.25;;;6.94;87.28
9325;BME280;4701;51.566;6.776;2023-03-04T10:44:03;102123.66;;;7.14;85.11
9325;BME280;4701;51.566;6.776;2023-03-04T10:46:12;102133.84;;;7.18;84.67
9325;BME280;4701;51.566;6.776;2023-03-04T10:48:20;102124.69;;;7.19;84.34
9325;BME280;4701;51.566;6.776;2023-03-04T10:50:26;102126.97;;;7.09;84.58
9325;BME280;4701;51.566;6.776;2023-03-04T10:52:29;102122.38;;;7.10;84.65
9325;BME280;4701;51.566;6.776;2023-03-04T10:54:36;102121.34;;;7.11;84.44
9325;BME280;4701;51.566;6.776;2023-03-04T10:56:43;102126.56;;;7.19;84.83
9325;BME280;4701;51.566;6.776;2023-03-04T10:59:28;102125.06;;;7.23;83.80
9325;BME280;4701;51.566;6.776;2023-03-04T11:01:31;102128.22;;;7.27;84.13
9325;BME280;4701;51.566;6.776;2023-03-04T11:03:34;102122.13;;;7.44;83.38
9325;BME280;4701;51.566;6.776;2023-03-04T11:05:36;102121.09;;;7.45;82.42
9325;BME280;4701;51.566;6.776;2023-03-04T11:07:41;102113.41;;;7.22;83.08
9325;BME280;4701;51.566;6.776;2023-03-04T11:09:44;102121.16;;;7.12;83.84
9325;BME280;4701;51.566;6.776;2023-03-04T11:11:48;102114.25;;;7.16;84.00
9325;BME280;4701;51.566;6.776;2023-03-04T11:13:52;102113.84;;;7.13;84.23
9325;BME280;4701;51.566;6.776;2023-03-04T11:16:01;102111.16;;;6.93;84.45
9325;BME280;4701;51.566;6.776;2023-03-04T11:18:05;102100.09;;;6.81;86.25
9325;BME280;4701;51.566;6.776;2023-03-04T11:20:15;102100.09;;;6.81;86.65
9325;BME280;4701;51.566;6.776;2023-03-04T11:22:20;102103.44;;;6.77;86.58
9325;BME280;4701;51.566;6.776;2023-03-04T11:24:25;102102.81;;;6.68;86.26
9325;BME280;4701;51.566;6.776;2023-03-04T11:26:32;102104.47;;;6.76;86.76
9325;BME280;4701;51.566;6.776;2023-03-04T11:28:39;102098.03;;;6.77;86.26
9325;BME280;4701;51.566;6.776;2023-03-04T11:30:44;102100.72;;;6.70;86.56
9325;BME280;4701;51.566;6.776;2023-03-04T11:32:52;102095.13;;;6.72;86.45
9325;BME280;4701;51.566;6.776;2023-03-04T11:35:00;102098.84;;;6.71;86.76
9325;BME280;4701;51.566;6.776;2023-03-04T11:37:11;102093.44;;;6.71;87.42
9325;BME280;4701;51.566;6.776;2023-03-04T11:39:20;102084.69;;;6.69;88.04
9325;BME280;4701;51.566;6.776;2023-03-04T11:41:28;102095.28;;;6.64;88.38
9325;BME280;4701;51.566;6.776;2023-03-04T11:43:34;102098.03;;;6.70;89.15
9325;BME280;4701;51.566;6.776;2023-03-04T11:45:51;102091.34;;;6.66;89.92
9325;BME280;4701;51.566;6.776;2023-03-04T11:48:04;102093.00;;;6.74;90.21
9325;BME280;4701;51.566;6.776;2023-03-04T11:50:15;102081.72;;;6.90;90.58
9325;BME280;4701;51.566;6.776;2023-03-04T11:52:30;102084.03;;;7.00;90.44
9325;BME280;4701;51.566;6.776;2023-03-04T11:54:44;102071.91;;;7.15;89.48
9325;BME280;4701;51.566;6.776;2023-03-04T11:56:49;102076.91;;;7.18;88.79
9325;BME280;4701;51.566;6.776;2023-03-04T11:59:15;102072.72;;;7.29;88.13
9325;BME280;4701;51.566;6.776;2023-03-04T12:01:23;102069.38;;;7.27;87.71
9325;BME280;4701;51.566;6.776;2023-03-04T12:04:00;102067.31;;;7.22;87.79
9325;BME280;4701;51.566;6.776;2023-03-04T12:06:11;102062.31;;;7.19;88.51
9325;BME280;4701;51.566;6.776;2023-03-04T12:08:23;102061.72;;;7.04;90.50
9325;BME280;4701;51.566;6.776;2023-03-04T12:10:32;102058.19;;;6.84;92.25
9325;BME280;4701;51.566;6.776;2023-03-04T12:12:55;102061.75;;;6.71;94.83
9325;BME280;4701;51.566;6.776;2023-03-04T12:15:10;102058.41;;;6.56;97.02
9325;BME280;4701;51.566;6.776;2023-03-04T12:17:42;102060.50;;;6.54;98.59
9325;BME280;4701;51.566;6.776;2023-03-04T12:20:08;102060.50;;;6.54;99.17
9325;BME280;4701;51.566;6.776;2023-03-04T12:22:27;102060.28;;;6.56;100.00
9325;BME280;4701;51.566;6.776;2023-03-04T12:24:53;102064.25;;;6.60;100.00
9325;BME280;4701;51.566;6.776;2023-03-04T12:27:08;102052.59;;;6.46;100.00
9325;BME280;4701;51.566;6.776;2023-03-04T12:29:19;102050.09;;;6.38;100.00
9325;BME280;4701;51.566;6.776;2023-03-04T12:31:32;102037.78;;;6.35;100.00
9325;BME280;4701;51.566;6.776;2023-03-04T12:33:43;102041.53;;;6.34;100.00
9325;BME280;4701;51.566;6.776;2023-03-04T12:35:59;102039.47;;;6.36;100.00
9325;BME280;4701;51.566;6.776;2023-03-04T12:38:17;102037.56;;;6.57;100.00
9325;BME280;4701;51.566;6.776;2023-03-04T12:40:29;102037.13;;;6.73;100.00
9325;BME280;4701;51.566;6.776;2023-03-04T12:42:39;102031.50;;;6.81;100.00
9325;BME280;4701;51.566;6.776;2023-03-04T12:44:54;102029.63;;;6.81;100.00
9325;BME280;4701;51.566;6.776;2023-03-04T12:47:10;102025.88;;;6.82;100.00
9325;BME280;4701;51.566;6.776;2023-03-04T12:49:25;102026.91;;;6.81;99.82
9325;BME280;4701;51.566;6.776;2023-03-04T12:51:35;102019.00;;;6.73;99.93
9325;BME280;4701;51.566;6.776;2023-03-04T12:53:49;102015.69;;;6.65;100.00
9325;BME280;4701;51.566;6.776;2023-03-04T12:55:55;102018.81;;;6.75;100.00
9325;BME280;4701;51.566;6.776;2023-03-04T12:57:58;102018.00;;;6.61;99.31
9325;BME280;4701;51.566;6.776;2023-03-04T13:00:13;102016.53;;;6.72;99.68
9325;BME280;4701;51.566;6.776;2023-03-04T13:02:31;102009.22;;;6.72;98.16
9325;BME280;4701;51.566;6.776;2023-03-04T13:04:42;102015.47;;;6.66;98.41
9325;BME280;4701;51.566;6.776;2023-03-04T13:07:03;102011.94;;;6.59;99.12
9325;BME280;4701;51.566;6.776;2023-03-04T13:09:15;102013.81;;;6.65;99.06
9325;BME280;4701;51.566;6.776;2023-03-04T13:11:40;102011.31;;;6.70;99.59
9325;BME280;4701;51.566;6.776;2023-03-04T13:13:43;102004.63;;;6.86;98.45
9325;BME280;4701;51.566;6.776;2023-03-04T13:16:01;102002.75;;;6.73;97.48
9325;BME280;4701;51.566;6.776;2023-03-04T13:18:31;102002.53;;;6.75;97.10
9325;BME280;4701;51.566;6.776;2023-03-04T13:20:37;102006.72;;;6.58;97.20
9325;BME280;4701;51.566;6.776;2023-03-04T13:22:45;101998.41;;;6.53;97.27
9325;BME280;4701;51.566;6.776;2023-03-04T13:24:51;101990.91;;;6.61;97.64
9325;BME280;4701;51.566;6.776;2023-03-04T13:26:53;101995.91;;;6.71;97.29
9325;BME280;4701;51.566;6.776;2023-03-04T13:31:26;101994.03;;;6.58;98.19
9325;BME280;4701;51.566;6.776;2023-03-04T13:33:56;101983.19;;;6.52;99.30
9325;BME280;4701;51.566;6.776;2023-03-04T13:36:00;101979.44;;;6.59;99.15
9325;BME280;4701;51.566;6.776;2023-03-04T13:38:20;101989.63;;;6.64;98.53
9325;BME280;4701;51.566;6.776;2023-03-04T13:40:32;101981.72;;;6.69;98.96
9325;BME280;4701;51.566;6.776;2023-03-04T13:42:38;101983.59;;;6.62;98.08
9325;BME280;4701;51.566;6.776;2023-03-04T13:44:59;101977.38;;;6.55;97.84
9325;BME280;4701;51.566;6.776;2023-03-04T13:47:09;101973.00;;;6.54;97.84
9325;BME280;4701;51.566;6.776;2023-03-04T13:49:20;101972.97;;;6.47;97.48
9325;BME280;4701;51.566;6.776;2023-03-04T13:51:25;101963.41;;;6.51;97.36
9325;BME280;4701;51.566;6.776;2023-03-04T13:53:49;101971.09;;;6.61;97.88
9325;BME280;4701;51.566;6.776;2023-03-04T13:56:04;101965.06;;;6.59;97.58
9325;BME280;4701;51.566;6.776;2023-03-04T13:58:17;101960.03;;;6.56;99.09
9325;BME280;4701;51.566;6.776;2023-03-04T14:00:22;101960.03;;;6.56;99.00
9325;BME280;4701;51.566;6.776;2023-03-04T14:02:24;101959.03;;;6.63;98.69
9325;BME280;4701;51.566;6.776;2023-03-04T14:04:32;101955.88;;;6.60;99.41
9325;BME280;4701;51.566;6.776;2023-03-04T14:06:40;101958.34;;;6.74;99.56
9325;BME280;4701;51.566;6.776;2023-03-04T14:08:42;101957.28;;;6.82;98.90
9325;BME280;4701;51.566;6.776;2023-03-04T14:10:54;101961.25;;;6.86;99.89
9325;BME280;4701;51.566;6.776;2023-03-04T14:12:57;101960.41;;;6.86;100.00
9325;BME280;4701;51.566;6.776;2023-03-04T14:15:03;101954.16;;;6.85;98.13
9325;BME280;4701;51.566;6.776;2023-03-04T14:17:14;101953.59;;;6.70;98.84
9325;BME280;4701;51.566;6.776;2023-03-04T14:19:22;101948.56;;;6.73;99.99
9325;BME280;4701;51.566;6.776;2023-03-04T14:21:25;101945.03;;;6.79;99.18
9325;BME280;4701;51.566;6.776;2023-03-04T14:23:29;101945.03;;;6.79;99.03
9325;BME280;4701;51.566;6.776;2023-03-04T14:25:33;101943.94;;;6.80;98.56
9325;BME280;4701;51.566;6.776;2023-03-04T14:27:37;101951.28;;;6.80;98.59
9325;BME280;4701;51.566;6.776;2023-03-04T14:29:39;101945.59;;;6.95;98.75
9325;BME280;4701;51.566;6.776;2023-03-04T14:31:41;101943.50;;;6.97;97.96
9325;BME280;4701;51.566;6.776;2023-03-04T14:33:44;101947.66;;;7.06;96.50
9325;BME280;4701;51.566;6.776;2023-03-04T14:35:48;101952.06;;;6.94;96.28
9325;BME280;4701;51.566;6.776;2023-03-04T14:37:55;101939.31;;;7.01;95.08
9325;BME280;4701;51.566;6.776;2023-03-04T14:39:59;101948.69;;;7.05;96.24
9325;BME280;4701;51.566;6.776;2023-03-04T14:42:06;101936.63;;;6.94;95.26
9325;BME280;4701;51.566;6.776;2023-03-04T14:44:17;101935.41;;;6.83;94.45
9325;BME280;4701;51.566;6.776;2023-03-04T14:46:23;101935.81;;;6.80;94.83
9325;BME280;4701;51.566;6.776;2023-03-04T14:48:31;101928.53;;;6.74;95.31
9325;BME280;4701;51.566;6.776;2023-03-04T14:50:34;101931.84;;;6.83;94.29
9325;BME280;4701;51.566;6.776;2023-03-04T14:52:37;101927.31;;;6.77;93.32
9325;BME280;4701;51.566;6.776;2023-03-04T14:54:40;101924.38;;;6.78;90.97
9325;BME280;4701;51.566;6.776;2023-03-04T14:56:42;101925.19;;;6.86;91.15
9325;BME280;4701;51.566;6.776;2023-03-04T14:58:52;101920.81;;;6.84;90.61
9325;BME280;4701;51.566;6.776;2023-03-04T15:01:20;101917.69;;;6.81;89.44
9325;BME280;4701;51.566;6.776;2023-03-04T15:03:24;101929.59;;;6.80;88.54
9325;BME280;4701;51.566;6.776;2023-03-04T15:05:28;101918.16;;;6.71;88.46
9325;BME280;4701;51.566;6.776;2023-03-04T15:07:33;101916.03;;;6.80;87.99
9325;BME280;4701;51.566;6.776;2023-03-04T15:09:36;101914.97;;;6.81;88.47
9325;BME280;4701;51.566;6.776;2023-03-04T15:11:44;101917.50;;;6.76;87.16
9325;BME280;4701;51.566;6.776;2023-03-04T15:13:48;101918.53;;;6.75;86.38
9325;BME280;4701;51.566;6.776;2023-03-04T15:16:00;101921.47;;;6.80;87.07
9325;BME280;4701;51.566;6.776;2023-03-04T15:18:13;101913.53;;;6.78;86.81
9325;BME280;4701;51.566;6.776;2023-03-04T15:20:23;101913.34;;;6.80;87.11
9325;BME280;4701;51.566;6.776;2023-03-04T15:22:25;101919.56;;;6.87;86.28
9325;BME280;4701;51.566;6.776;2023-03-04T15:24:30;101914.72;;;6.89;85.51
9325;BME280;4701;51.566;6.776;2023-03-04T15:26:33;101910.38;;;6.88;85.40
9325;BME280;4701;51.566;6.776;2023-03-04T15:28:39;101907.06;;;6.86;85.03
9325;BME280;4701;51.566;6.776;2023-03-04T15:30:42;101904.72;;;6.90;85.04
9325;BME280;4701;51.566;6.776;2023-03-04T15:32:44;101903.69;;;6.91;84.25
9325;BME280;4701;51.566;6.776;2023-03-04T15:34:47;101903.94;;;6.82;83.56
9325;BME280;4701;51.566;6.776;2023-03-04T15:36:49;101905.56;;;6.90;83.47
9325;BME280;4701;51.566;6.776;2023-03-04T15:38:52;101897.66;;;6.89;83.59
9325;BME280;4701;51.566;6.776;2023-03-04T15:40:54;101903.31;;;6.87;82.97
9325;BME280;4701;51.566;6.776;2023-03-04T15:42:59;101902.69;;;6.78;82.41
9325;BME280;4701;51.566;6.776;2023-03-04T15:45:04;101902.69;;;6.85;81.29
9325;BME280;4701;51.566;6.776;2023-03-04T15:47:12;101896.22;;;6.86;78.63
9325;BME280;4701;51.566;6.776;2023-03-04T15:49:14;101901.41;;;6.81;78.64
9325;BME280;4701;51.566;6.776;2023-03-04T15:51:19;101900.19;;;6.77;77.92
9325;BME280;4701;51.566;6.776;2023-03-04T15:53:26;101898.31;;;6.77;77.68
9325;BME280;4701;51.566;6.776;2023-03-04T15:55:30;101898.50;;;6.82;77.08
9325;BME280;4701;51.566;6.776;2023-03-04T15:57:33;101895.16;;;6.87;76.34
9325;BME280;4701;51.566;6.776;2023-03-04T15:59:34;101902.84;;;6.97;76.22
9325;BME280;4701;51.566;6.776;2023-03-04T16:01:36;101898.28;;;6.84;76.07
9325;BME280;4701;51.566;6.776;2023-03-04T16:03:38;101894.09;;;6.95;75.69
9325;BME280;4701;51.566;6.776;2023-03-04T16:05:41;101903.09;;;6.89;75.56
9325;BME280;4701;51.566;6.776;2023-03-04T16:07:46;101898.84;;;6.99;74.86
9325;BME280;4701;51.566;6.776;2023-03-04T16:09:52;101903.47;;;6.92;75.40
9325;BME280;4701;51.566;6.776;2023-03-04T16:11:55;101906.22;;;6.86;75.85
9325;BME280;4701;51.566;6.776;2023-03-04T16:14:01;101908.69;;;6.94;74.93
9325;BME280;4701;51.566;6.776;2023-03-04T16:16:03;101904.13;;;6.81;75.77
9325;BME280;4701;51.566;6.776;2023-03-04T16:18:05;101902.69;;;6.85;75.52
9325;BME280;4701;51.566;6.776;2023-03-04T16:20:09;101900.16;;;6.83;75.12
9325;BME280;4701;51.566;6.776;2023-03-04T16:22:12;101901.88;;;6.78;75.83
9325;BME280;4701;51.566;6.776;2023-03-04T16:24:17;101901.25;;;6.76;75.71
9325;BME280;4701;51.566;6.776;2023-03-04T16:26:22;101893.28;;;6.81;75.68
9325;BME280;4701;51.566;6.776;2023-03-04T16:28:24;101900.41;;;6.75;75.71
9325;BME280;4701;51.566;6.776;2023-03-04T16:30:26;101892.94;;;6.71;76.32
9325;BME280;4701;51.566;6.776;2023-03-04T16:32:28;101894.38;;;6.73;75.79
9325;BME280;4701;51.566;6.776;2023-03-04T16:34:30;101897.06;;;6.73;75.68
9325;BME280;4701;51.566;6.776;2023-03-04T16:36:34;101899.19;;;6.71;76.22
9325;BME280;4701;51.566;6.776;2023-03-04T16:38:36;101895.44;;;6.66;76.38
9325;BME280;4701;51.566;6.776;2023-03-04T16:40:39;101896.06;;;6.68;76.33
9325;BME280;4701;51.566;6.776;2023-03-04T16:42:41;101887.72;;;6.69;76.68
9325;BME280;4701;51.566;6.776;2023-03-04T16:44:43;101894.59;;;6.65;76.45
9325;BME280;4701;51.566;6.776;2023-03-04T16:46:48;101898.59;;;6.63;76.92
9325;BME280;4701;51.566;6.776;2023-03-04T16:48:50;101906.09;;;6.61;75.93
9325;BME280;4701;51.566;6.776;2023-03-04T16:50:52;101891.69;;;6.67;76.15
9325;BME280;4701;51.566;6.776;2023-03-04T16:52:54;101902.13;;;6.57;76.20
9325;BME280;4701;51.566;6.776;2023-03-04T16:54:59;101893.59;;;6.60;75.60
9325;BME280;4701;51.566;6.776;2023-03-04T16:57:03;101892.53;;;6.61;76.19
9325;BME280;4701;51.566;6.776;2023-03-04T16:59:04;101897.50;;;6.64;76.07
9325;BME280;4701;51.566;6.776;2023-03-04T17:01:13;101901.72;;;6.60;75.90
9325;BME280;4701;51.566;6.776;2023-03-04T17:03:16;101901.91;;;6.58;75.49
9325;BME280;4701;51.566;6.776;2023-03-04T17:05:20;101900.91;;;6.53;75.53
9325;BME280;4701;51.566;6.776;2023-03-04T17:07:23;101895.72;;;6.38;75.76
9325;BME280;4701;51.566;6.776;2023-03-04T17:09:24;101896.75;;;6.43;75.83
9325;BME280;4701;51.566;6.776;2023-03-04T17:11:26;101904.03;;;6.43;76.25
9325;BME280;4701;51.566;6.776;2023-03-04T17:13:29;101904.66;;;6.45;75.40
9325;BME280;4701;51.566;6.776;2023-03-04T17:15:31;101907.78;;;6.49;74.92
9325;BME280;4701;51.566;6.776;2023-03-04T17:17:33;101901.97;;;6.45;75.38
9325;BME280;4701;51.566;6.776;2023-03-04T17:19:35;101908.41;;;6.44;75.29
9325;BME280;4701;51.566;6.776;2023-03-04T17:21:37;101901.50;;;6.48;74.88
9325;BME280;4701;51.566;6.776;2023-03-04T17:23:38;101908.81;;;6.47;75.29
9325;BME280;4701;51.566;6.776;2023-03-04T17:25:40;101903.84;;;6.44;75.41
9325;BME280;4701;51.566;6.776;2023-03-04T17:27:42;101914.03;;;6.42;76.02
9325;BME280;4701;51.566;6.776;2023-03-04T17:29:45;101916.31;;;6.39;76.21
9325;BME280;4701;51.566;6.776;2023-03-04T17:31:48;101901.75;;;6.33;76.17
9325;BME280;4701;51.566;6.776;2023-03-04T17:33:50;101911.97;;;6.38;76.87
9325;BME280;4701;51.566;6.776;2023-03-04T17:35:52;101910.91;;;6.45;76.19
9325;BME280;4701;51.566;6.776;2023-03-04T17:37:54;101915.50;;;6.32;77.13
9325;BME280;4701;51.566;6.776;2023-03-04T17:39:55;101913.84;;;6.31;76.95
9325;BME280;4701;51.566;6.776;2023-03-04T17:41:57;101917.78;;;6.41;76.95
9325;BME280;4701;51.566;6.776;2023-03-04T17:43:59;101918.41;;;6.43;76.57
9325;BME280;4701;51.566;6.776;2023-03-04T17:46:03;101919.88;;;6.26;76.98
9325;BME280;4701;51.566;6.776;2023-03-04T17:48:06;101917.81;;;6.28;76.86
9325;BME280;4701;51.566;6.776;2023-03-04T17:50:14;101919.88;;;6.26;76.60
9325;BME280;4701;51.566;6.776;2023-03-04T17:52:16;101911.34;;;6.23;74.00
9325;BME280;4701;51.566;6.776;2023-03-04T17:54:18;101919.06;;;6.19;72.33
9325;BME280;4701;51.566;6.776;2023-03-04T17:56:20;101922.41;;;6.08;71.24
9325;BME280;4701;51.566;6.776;2023-03-04T17:58:23;101915.72;;;6.17;70.18
9325;BME280;4701;51.566;6.776;2023-03-04T18:00:25;101909.69;;;6.15;70.35
9325;BME280;4701;51.566;6.776;2023-03-04T18:02:28;101915.09;;;6.08;69.24
9325;BME280;4701;51.566;6.776;2023-03-04T18:04:30;101918.03;;;6.00;69.74
9325;BME280;4701;51.566;6.776;2023-03-04T18:06:32;101903.03;;;5.98;70.64
9325;BME280;4701;51.566;6.776;2023-03-04T18:08:34;101918.84;;;6.01;69.22
9325;BME280;4701;51.566;6.776;2023-03-04T18:10:35;101908.03;;;6.01;68.39
9325;BME280;4701;51.566;6.776;2023-03-04T18:12:37;101906.16;;;6.01;69.36
9325;BME280;4701;51.566;6.776;2023-03-04T18:14:39;101909.69;;;5.89;68.77
9325;BME280;4701;51.566;6.776;2023-03-04T18:16:41;101910.53;;;6.02;68.63
9325;BME280;4701;51.566;6.776;2023-03-04T18:18:44;101906.34;;;5.87;68.86
9325;BME280;4701;51.566;6.776;2023-03-04T18:20:46;101907.59;;;5.91;68.92
9325;BME280;4701;51.566;6.776;2023-03-04T18:22:48;101910.50;;;5.96;68.00
9325;BME280;4701;51.566;6.776;2023-03-04T18:24:50;101913.84;;;5.91;68.10
9325;BME280;4701;51.566;6.776;2023-03-04T18:26:52;101909.44;;;5.84;68.01
9325;BME280;4701;51.566;6.776;2023-03-04T18:28:54;101907.16;;;5.81;68.12
9325;BME280;4701;51.566;6.776;2023-03-04T18:30:56;101911.94;;;5.85;67.34